sensor_id;sensor_type;location;lat;lon;timestamp;pressure;altitude;pressure_sealevel;temperature;humidity
68871;BME280;55906;52.278;6.808;2023-04-01T00:02:21;99048.13;;;10.71;97.03
68871;BME280;55906;52.278;6.808;2023-04-01T00:04:48;99042.00;;;10.69;96.83
68871;BME280;55906;52.278;6.808;2023-04-01T00:07:15;99041.13;;;10.67;97.02
68871;BME280;55906;52.278;6.808;2023-04-01T00:09:41;99042.88;;;10.65;97.27
68871;BME280;55906;52.278;6.808;2023-04-01T00:12:08;99048.13;;;10.67;96.96
68871;BME280;55906;52.278;6.808;2023-04-01T00:14:35;99048.16;;;10.65;97.06
68871;BME280;55906;52.278;6.808;2023-04-01T00:17:03;99042.91;;;10.62;97.60
68871;BME280;55906;52.278;6.808;2023-04-01T00:19:30;99038.50;;;10.64;97.79
68871;BME280;55906;52.278;6.808;2023-04-01T00:21:57;99039.41;;;10.60;97.26
68871;BME280;55906;52.278;6.808;2023-04-01T00:24:24;99033.25;;;10.64;97.65
68871;BME280;55906;52.278;6.808;2023-04-01T00:26:51;99038.53;;;10.58;97.73
68871;BME280;55906;52.278;6.808;2023-04-01T00:29:17;99033.25;;;10.63;97.99
68871;BME280;55906;52.278;6.808;2023-04-01T00:31:44;99032.41;;;10.59;98.01
68871;BME280;55906;52.278;6.808;2023-04-01T00:34:12;99035.91;;;10.60;97.51
68871;BME280;55906;52.278;6.808;2023-04-01T00:36:39;99035.91;;;10.61;97.85
68871;BME280;55906;52.278;6.808;2023-04-01T00:39:05;99036.78;;;10.60;97.69
68871;BME280;55906;52.278;6.808;2023-04-01T00:41:32;99029.75;;;10.59;98.04
68871;BME280;55906;52.278;6.808;2023-04-01T00:44:18;99025.34;;;10.66;97.73
68871;BME280;55906;52.278;6.808;2023-04-01T00:46:46;99030.63;;;10.61;97.49
68871;BME280;55906;52.278;6.808;2023-04-01T00:49:16;99027.13;;;10.61;97.59
68871;BME280;55906;52.278;6.808;2023-04-01T00:51:45;99032.41;;;10.59;97.46
68871;BME280;55906;52.278;6.808;2023-04-01T00:54:14;99029.75;;;10.59;97.64
68871;BME280;55906;52.278;6.808;2023-04-01T00:56:46;99027.13;;;10.64;97.80
68871;BME280;55906;52.278;6.808;2023-04-01T00:59:18;99029.75;;;10.64;97.33
68871;BME280;55906;52.278;6.808;2023-04-01T01:01:47;99036.75;;;10.65;97.65
68871;BME280;55906;52.278;6.808;2023-04-01T01:04:24;99031.50;;;10.65;97.73
68871;BME280;55906;52.278;6.808;2023-04-01T01:06:58;99034.13;;;10.62;97.81
68871;BME280;55906;52.278;6.808;2023-04-01T01:09:31;99035.00;;;10.62;97.59
68871;BME280;55906;52.278;6.808;2023-04-01T01:12:05;99032.38;;;10.62;98.01
68871;BME280;55906;52.278;6.808;2023-04-01T01:14:42;99029.72;;;10.67;97.69
68871;BME280;55906;52.278;6.808;2023-04-01T01:17:14;99033.22;;;10.69;97.46
68871;BME280;55906;52.278;6.808;2023-04-01T01:25:43;99026.25;;;10.62;98.47
68871;BME280;55906;52.278;6.808;2023-04-01T01:28:25;99025.38;;;10.61;98.66
68871;BME280;55906;52.278;6.808;2023-04-01T01:31:02;99022.75;;;10.63;98.74
68871;BME280;55906;52.278;6.808;2023-04-01T01:33:51;99026.25;;;10.63;98.40
68871;BME280;55906;52.278;6.808;2023-04-01T01:36:27;99020.13;;;10.58;98.26
68871;BME280;55906;52.278;6.808;2023-04-01T01:38:55;99018.38;;;10.60;98.63
68871;BME280;55906;52.278;6.808;2023-04-01T01:41:25;99019.22;;;10.62;98.82
68871;BME280;55906;52.278;6.808;2023-04-01T01:43:53;99026.25;;;10.63;98.36
68871;BME280;55906;52.278;6.808;2023-04-01T01:46:24;99022.75;;;10.61;98.71
68871;BME280;55906;52.278;6.808;2023-04-01T01:48:52;99022.75;;;10.61;98.58
68871;BME280;55906;52.278;6.808;2023-04-01T01:51:21;99020.13;;;10.61;98.99
68871;BME280;55906;52.278;6.808;2023-04-01T01:53:50;99023.63;;;10.57;99.08
68871;BME280;55906;52.278;6.808;2023-04-01T01:56:18;99027.13;;;10.59;99.08
68871;BME280;55906;52.278;6.808;2023-04-01T01:58:47;99016.59;;;10.62;99.08
68871;BME280;55906;52.278;6.808;2023-04-01T02:01:17;99023.63;;;10.63;98.56
68871;BME280;55906;52.278;6.808;2023-04-01T02:03:47;99027.13;;;10.64;99.00
68871;BME280;55906;52.278;6.808;2023-04-01T02:06:17;99030.63;;;10.66;98.87
68871;BME280;55906;52.278;6.808;2023-04-01T02:08:47;99028.88;;;10.63;99.21
68871;BME280;55906;52.278;6.808;2023-04-01T02:11:19;99038.50;;;10.64;98.91
68871;BME280;55906;52.278;6.808;2023-04-01T02:13:52;99043.78;;;10.63;98.91
68871;BME280;55906;52.278;6.808;2023-04-01T02:16:22;99040.25;;;10.64;98.93
68871;BME280;55906;52.278;6.808;2023-04-01T02:18:51;99039.38;;;10.63;99.07
68871;BME280;55906;52.278;6.808;2023-04-01T02:21:22;99036.75;;;10.68;99.02
68871;BME280;55906;52.278;6.808;2023-04-01T02:23:52;99030.63;;;10.61;99.54
68871;BME280;55906;52.278;6.808;2023-04-01T02:26:21;99044.66;;;10.63;99.18
68871;BME280;55906;52.278;6.808;2023-04-01T02:28:49;99042.03;;;10.63;99.43
68871;BME280;55906;52.278;6.808;2023-04-01T02:31:17;99048.16;;;10.62;99.22
68871;BME280;55906;52.278;6.808;2023-04-01T02:33:44;99043.78;;;10.63;99.24
68871;BME280;55906;52.278;6.808;2023-04-01T02:36:13;99047.31;;;10.58;99.60
68871;BME280;55906;52.278;6.808;2023-04-01T02:38:42;99047.31;;;10.58;99.68
68871;BME280;55906;52.278;6.808;2023-04-01T02:41:09;99047.28;;;10.65;98.90
68871;BME280;55906;52.278;6.808;2023-04-01T02:43:37;99047.28;;;10.65;98.91
68871;BME280;55906;52.278;6.808;2023-04-01T02:46:04;99051.66;;;10.67;98.70
68871;BME280;55906;52.278;6.808;2023-04-01T02:48:30;99045.50;;;10.68;98.48
68871;BME280;55906;52.278;6.808;2023-04-01T02:50:57;99054.25;;;10.70;98.35
68871;BME280;55906;52.278;6.808;2023-04-01T02:53:24;99044.63;;;10.71;98.98
68871;BME280;55906;52.278;6.808;2023-04-01T02:55:50;99051.66;;;10.67;98.92
68871;BME280;55906;52.278;6.808;2023-04-01T02:58:18;99061.28;;;10.68;98.60
68871;BME280;55906;52.278;6.808;2023-04-01T03:00:46;99053.41;;;10.68;98.68
68871;BME280;55906;52.278;6.808;2023-04-01T03:03:13;99055.16;;;10.69;98.38
68871;BME280;55906;52.278;6.808;2023-04-01T03:05:40;99052.53;;;10.63;99.05
68871;BME280;55906;52.278;6.808;2023-04-01T03:08:06;99057.78;;;10.68;99.31
68871;BME280;55906;52.278;6.808;2023-04-01T03:10:33;99061.25;;;10.76;98.93
68871;BME280;55906;52.278;6.808;2023-04-01T03:12:59;99059.53;;;10.69;99.04
68871;BME280;55906;52.278;6.808;2023-04-01T03:15:26;99065.66;;;10.74;98.41
68871;BME280;55906;52.278;6.808;2023-04-01T03:17:54;99055.97;;;10.77;98.83
68871;BME280;55906;52.278;6.808;2023-04-01T03:20:21;99059.53;;;10.69;99.17
68871;BME280;55906;52.278;6.808;2023-04-01T03:22:47;99074.41;;;10.71;99.08
68871;BME280;55906;52.278;6.808;2023-04-01T03:25:14;99065.66;;;10.69;99.21
68871;BME280;55906;52.278;6.808;2023-04-01T03:27:41;99073.53;;;10.71;98.84
68871;BME280;55906;52.278;6.808;2023-04-01T03:30:08;99077.94;;;10.70;99.01
68871;BME280;55906;52.278;6.808;2023-04-01T03:32:35;99079.69;;;10.71;99.38
68871;BME280;55906;52.278;6.808;2023-04-01T03:35:04;99076.19;;;10.71;99.13
68871;BME280;55906;52.278;6.808;2023-04-01T03:37:31;99081.41;;;10.78;99.01
68871;BME280;55906;52.278;6.808;2023-04-01T03:39:58;99079.66;;;10.77;99.04
68871;BME280;55906;52.278;6.808;2023-04-01T03:42:24;99085.78;;;10.76;98.93
68871;BME280;55906;52.278;6.808;2023-04-01T03:44:51;99084.03;;;10.77;99.30
68871;BME280;55906;52.278;6.808;2023-04-01T03:47:17;99080.53;;;10.78;98.78
68871;BME280;55906;52.278;6.808;2023-04-01T03:49:44;99085.78;;;10.78;98.68
68871;BME280;55906;52.278;6.808;2023-04-01T03:52:12;99086.66;;;10.81;98.01
68871;BME280;55906;52.278;6.808;2023-04-01T03:54:39;99095.41;;;10.83;98.28
68871;BME280;55906;52.278;6.808;2023-04-01T03:57:06;99095.44;;;10.80;98.53
68871;BME280;55906;52.278;6.808;2023-04-01T03:59:32;99100.69;;;10.76;98.60
68871;BME280;55906;52.278;6.808;2023-04-01T04:01:59;99092.78;;;10.82;98.74
68871;BME280;55906;52.278;6.808;2023-04-01T04:04:26;99105.97;;;10.77;98.53
68871;BME280;55906;52.278;6.808;2023-04-01T04:06:53;99106.81;;;10.82;98.81
68871;BME280;55906;52.278;6.808;2023-04-01T04:09:21;99096.31;;;10.78;98.99
68871;BME280;55906;52.278;6.808;2023-04-01T04:11:48;99098.91;;;10.84;98.22
68871;BME280;55906;52.278;6.808;2023-04-01T04:14:15;99108.59;;;10.77;98.72
68871;BME280;55906;52.278;6.808;2023-04-01T04:16:41;99111.22;;;10.79;98.21
68871;BME280;55906;52.278;6.808;2023-04-01T04:19:09;99111.19;;;10.83;98.73
68871;BME280;55906;52.278;6.808;2023-04-01T04:21:36;99110.34;;;10.80;98.25
68871;BME280;55906;52.278;6.808;2023-04-01T04:24:03;99112.94;;;10.87;97.92
68871;BME280;55906;52.278;6.808;2023-04-01T04:26:31;99108.53;;;10.91;98.35
68871;BME280;55906;52.278;6.808;2023-04-01T04:28:58;99109.44;;;10.85;98.27
68871;BME280;55906;52.278;6.808;2023-04-01T04:31:25;99115.56;;;10.84;98.25
68871;BME280;55906;52.278;6.808;2023-04-01T04:33:52;99128.75;;;10.80;97.81
68871;BME280;55906;52.278;6.808;2023-04-01T04:36:21;99126.09;;;10.83;97.95
68871;BME280;55906;52.278;6.808;2023-04-01T04:38:48;99119.97;;;10.79;97.73
68871;BME280;55906;52.278;6.808;2023-04-01T04:41:16;99130.47;;;10.85;97.66
68871;BME280;55906;52.278;6.808;2023-04-01T04:43:49;99126.13;;;10.78;97.99
68871;BME280;55906;52.278;6.808;2023-04-01T04:46:15;99139.25;;;10.80;97.46
68871;BME280;55906;52.278;6.808;2023-04-01T04:48:42;99134.84;;;10.86;97.27
68871;BME280;55906;52.278;6.808;2023-04-01T04:51:12;99132.25;;;10.77;97.31
68871;BME280;55906;52.278;6.808;2023-04-01T04:53:39;99141.91;;;10.75;97.64
68871;BME280;55906;52.278;6.808;2023-04-01T04:56:06;99138.38;;;10.79;97.20
68871;BME280;55906;52.278;6.808;2023-04-01T04:58:33;99146.28;;;10.76;97.42
68871;BME280;55906;52.278;6.808;2023-04-01T05:01:07;99143.66;;;10.81;97.21
68871;BME280;55906;52.278;6.808;2023-04-01T05:03:34;99150.66;;;10.85;96.99
68871;BME280;55906;52.278;6.808;2023-04-01T05:06:00;99148.03;;;10.80;97.14
68871;BME280;55906;52.278;6.808;2023-04-01T05:08:27;99152.41;;;10.86;97.28
68871;BME280;55906;52.278;6.808;2023-04-01T05:10:53;99153.25;;;10.89;96.94
68871;BME280;55906;52.278;6.808;2023-04-01T05:13:20;99149.75;;;10.87;97.65
68871;BME280;55906;52.278;6.808;2023-04-01T05:15:47;99152.38;;;10.90;97.15
68871;BME280;55906;52.278;6.808;2023-04-01T05:18:15;99162.91;;;10.87;97.27
68871;BME280;55906;52.278;6.808;2023-04-01T05:20:46;99162.94;;;10.83;97.55
68871;BME280;55906;52.278;6.808;2023-04-01T05:23:13;99159.44;;;10.81;97.41
68871;BME280;55906;52.278;6.808;2023-04-01T05:25:39;99169.06;;;10.83;97.18
68871;BME280;55906;52.278;6.808;2023-04-01T05:28:06;99170.81;;;10.87;97.14
68871;BME280;55906;52.278;6.808;2023-04-01T05:30:32;99169.94;;;10.88;96.62
68871;BME280;55906;52.278;6.808;2023-04-01T05:32:59;99175.19;;;10.85;97.19
68871;BME280;55906;52.278;6.808;2023-04-01T05:35:27;99172.56;;;10.88;96.58
68871;BME280;55906;52.278;6.808;2023-04-01T05:37:54;99169.06;;;10.88;96.92
68871;BME280;55906;52.278;6.808;2023-04-01T05:40:21;99181.31;;;10.95;96.66
68871;BME280;55906;52.278;6.808;2023-04-01T05:42:47;99182.19;;;10.96;96.74
68871;BME280;55906;52.278;6.808;2023-04-01T05:45:14;99187.44;;;10.99;96.07
68871;BME280;55906;52.278;6.808;2023-04-01T05:47:41;99184.81;;;10.99;96.12
68871;BME280;55906;52.278;6.808;2023-04-01T05:50:09;99185.69;;;10.99;96.75
68871;BME280;55906;52.278;6.808;2023-04-01T05:52:37;99184.78;;;11.02;96.61
68871;BME280;55906;52.278;6.808;2023-04-01T05:55:05;99194.44;;;11.07;95.91
68871;BME280;55906;52.278;6.808;2023-04-01T05:57:32;99193.53;;;11.13;95.79
68871;BME280;55906;52.278;6.808;2023-04-01T05:59:59;99192.66;;;11.06;95.96
68871;BME280;55906;52.278;6.808;2023-04-01T06:02:25;99203.19;;;11.09;96.61
68871;BME280;55906;52.278;6.808;2023-04-01T06:04:58;99194.41;;;11.10;96.57
68871;BME280;55906;52.278;6.808;2023-04-01T06:07:27;99205.84;;;11.05;96.35
68871;BME280;55906;52.278;6.808;2023-04-01T06:09:56;99207.56;;;11.09;96.40
68871;BME280;55906;52.278;6.808;2023-04-01T06:12:49;99217.22;;;11.13;96.64
68871;BME280;55906;52.278;6.808;2023-04-01T06:15:25;99211.97;;;11.08;96.36
68871;BME280;55906;52.278;6.808;2023-04-01T06:18:09;99213.69;;;11.14;96.15
68871;BME280;55906;52.278;6.808;2023-04-01T06:20:43;99212.88;;;11.01;96.76
68871;BME280;55906;52.278;6.808;2023-04-01T06:23:27;99214.56;;;11.13;95.97
68871;BME280;55906;52.278;6.808;2023-04-01T06:26:14;99218.09;;;11.15;96.49
68871;BME280;55906;52.278;6.808;2023-04-01T06:29:04;99225.09;;;11.16;96.23
68871;BME280;55906;52.278;6.808;2023-04-01T06:34:39;99228.59;;;11.19;96.56
68871;BME280;55906;52.278;6.808;2023-04-01T06:37:20;99225.06;;;11.22;95.90
68871;BME280;55906;52.278;6.808;2023-04-01T06:40:00;99234.72;;;11.23;95.85
68871;BME280;55906;52.278;6.808;2023-04-01T06:42:46;99228.56;;;11.24;95.77
68871;BME280;55906;52.278;6.808;2023-04-01T06:45:25;99239.97;;;11.32;95.98
68871;BME280;55906;52.278;6.808;2023-04-01T06:48:10;99239.03;;;11.41;95.22
68871;BME280;55906;52.278;6.808;2023-04-01T06:50:44;99237.31;;;11.37;95.78
68871;BME280;55906;52.278;6.808;2023-04-01T06:53:18;99244.31;;;11.39;95.25
68871;BME280;55906;52.278;6.808;2023-04-01T06:55:50;99241.69;;;11.38;95.20
68871;BME280;55906;52.278;6.808;2023-04-01T06:58:22;99243.41;;;11.48;94.54
68871;BME280;55906;52.278;6.808;2023-04-01T07:00:52;99247.78;;;11.50;94.88
68871;BME280;55906;52.278;6.808;2023-04-01T07:03:22;99245.13;;;11.58;94.34
68871;BME280;55906;52.278;6.808;2023-04-01T07:05:50;99246.88;;;11.59;94.27
68871;BME280;55906;52.278;6.808;2023-04-01T07:08:20;99261.81;;;11.55;93.81
68871;BME280;55906;52.278;6.808;2023-04-01T07:10:50;99259.16;;;11.62;93.99
68871;BME280;55906;52.278;6.808;2023-04-01T07:13:27;99252.97;;;11.72;93.97
68871;BME280;55906;52.278;6.808;2023-04-01T07:15:59;99259.97;;;11.76;93.63
68871;BME280;55906;52.278;6.808;2023-04-01T07:18:34;99261.72;;;11.77;93.27
68871;BME280;55906;52.278;6.808;2023-04-01T07:21:04;99263.50;;;11.81;92.86
68871;BME280;55906;52.278;6.808;2023-04-01T07:23:39;99272.25;;;11.86;93.26
68871;BME280;55906;52.278;6.808;2023-04-01T07:26:15;99279.25;;;11.92;92.94
68871;BME280;55906;52.278;6.808;2023-04-01T07:28:44;99273.97;;;11.96;92.90
68871;BME280;55906;52.278;6.808;2023-04-01T07:31:18;99278.31;;;12.03;92.86
68871;BME280;55906;52.278;6.808;2023-04-01T07:33:53;99285.28;;;12.10;92.82
68871;BME280;55906;52.278;6.808;2023-04-01T07:36:29;99286.13;;;12.15;93.16
68871;BME280;55906;52.278;6.808;2023-04-01T07:39:05;99293.16;;;12.16;92.56
68871;BME280;55906;52.278;6.808;2023-04-01T07:41:44;99299.25;;;12.26;92.51
68871;BME280;55906;52.278;6.808;2023-04-01T07:44:24;99293.06;;;12.30;92.29
68871;BME280;55906;52.278;6.808;2023-04-01T07:47:16;99301.81;;;12.38;91.67
68871;BME280;55906;52.278;6.808;2023-04-01T07:49:54;99308.88;;;12.35;91.60
68871;BME280;55906;52.278;6.808;2023-04-01T07:52:31;99307.06;;;12.40;90.70
68871;BME280;55906;52.278;6.808;2023-04-01T07:55:06;99318.47;;;12.46;91.19
68871;BME280;55906;52.278;6.808;2023-04-01T07:57:41;99315.75;;;12.54;90.61
68871;BME280;55906;52.278;6.808;2023-04-01T08:00:16;99321.00;;;12.60;90.07
68871;BME280;55906;52.278;6.808;2023-04-01T08:02:59;99322.66;;;12.70;89.95
68871;BME280;55906;52.278;6.808;2023-04-01T08:05:34;99325.25;;;12.79;89.55
68871;BME280;55906;52.278;6.808;2023-04-01T08:08:10;99326.88;;;12.94;90.04
68871;BME280;55906;52.278;6.808;2023-04-01T08:10:45;99332.09;;;13.03;88.37
68871;BME280;55906;52.278;6.808;2023-04-01T08:13:18;99337.31;;;13.11;87.05
68871;BME280;55906;52.278;6.808;2023-04-01T08:15:54;99344.22;;;13.29;86.99
68871;BME280;55906;52.278;6.808;2023-04-01T08:18:33;99354.69;;;13.38;86.29
68871;BME280;55906;52.278;6.808;2023-04-01T08:21:05;99344.97;;;13.41;84.64
68871;BME280;55906;52.278;6.808;2023-04-01T08:23:37;99350.06;;;13.60;86.35
68871;BME280;55906;52.278;6.808;2023-04-01T08:26:10;99358.66;;;13.77;86.02
68871;BME280;55906;52.278;6.808;2023-04-01T08:28:41;99364.78;;;13.81;84.45
68871;BME280;55906;52.278;6.808;2023-04-01T08:31:15;99358.50;;;13.91;85.58
68871;BME280;55906;52.278;6.808;2023-04-01T08:33:44;99361.06;;;13.97;85.42
68871;BME280;55906;52.278;6.808;2023-04-01T08:36:15;99367.09;;;14.08;85.39
68871;BME280;55906;52.278;6.808;2023-04-01T08:38:44;99370.50;;;14.18;85.07
68871;BME280;55906;52.278;6.808;2023-04-01T08:41:32;99375.56;;;14.36;83.62
68871;BME280;55906;52.278;6.808;2023-04-01T08:44:22;99374.56;;;14.48;83.21
68871;BME280;55906;52.278;6.808;2023-04-01T08:47:12;99378.75;;;14.62;83.35
68871;BME280;55906;52.278;6.808;2023-04-01T08:49:56;99382.94;;;14.77;82.82
68871;BME280;55906;52.278;6.808;2023-04-01T08:52:34;99386.31;;;14.88;82.49
68871;BME280;55906;52.278;6.808;2023-04-01T08:55:25;99386.16;;;14.97;81.47
68871;BME280;55906;52.278;6.808;2023-04-01T08:58:05;99395.72;;;15.06;81.84
68871;BME280;55906;52.278;6.808;2023-04-01T09:00:43;99390.28;;;15.15;81.86
68871;BME280;55906;52.278;6.808;2023-04-01T09:06:33;99399.63;;;15.36;80.22
68871;BME280;55906;52.278;6.808;2023-04-01T09:09:36;99404.00;;;15.38;80.57
68871;BME280;55906;52.278;6.808;2023-04-01T09:12:30;99403.06;;;15.41;79.54
68871;BME280;55906;52.278;6.808;2023-04-01T09:15:18;99406.50;;;15.48;79.65
68871;BME280;55906;52.278;6.808;2023-04-01T09:21:09;99416.56;;;15.27;76.47
68871;BME280;55906;52.278;6.808;2023-04-01T09:27:01;99424.88;;;15.57;78.21
68871;BME280;55906;52.278;6.808;2023-04-01T09:29:41;99431.91;;;15.64;79.20
68871;BME280;55906;52.278;6.808;2023-04-01T09:32:32;99425.41;;;15.80;78.08
68871;BME280;55906;52.278;6.808;2023-04-01T09:35:20;99432.22;;;15.93;78.08
68871;BME280;55906;52.278;6.808;2023-04-01T09:37:53;99443.50;;;16.05;77.10
68871;BME280;55906;52.278;6.808;2023-04-01T09:40:25;99438.38;;;15.95;77.25
68871;BME280;55906;52.278;6.808;2023-04-01T09:43:16;99447.53;;;15.79;75.56
68871;BME280;55906;52.278;6.808;2023-04-01T09:45:58;99445.53;;;15.92;77.44
68871;BME280;55906;52.278;6.808;2023-04-01T09:48:44;99448.91;;;16.00;77.02
68871;BME280;55906;52.278;6.808;2023-04-01T09:51:23;99449.69;;;16.05;76.46
68871;BME280;55906;52.278;6.808;2023-04-01T09:54:05;99451.38;;;16.09;76.48
68871;BME280;55906;52.278;6.808;2023-04-01T09:59:54;99457.56;;;16.10;75.54
68871;BME280;55906;52.278;6.808;2023-04-01T10:06:18;99462.69;;;16.19;74.23
68871;BME280;55906;52.278;6.808;2023-04-01T10:09:28;99473.00;;;16.34;75.01
68871;BME280;55906;52.278;6.808;2023-04-01T10:12:38;99473.84;;;16.36;73.96
68871;BME280;55906;52.278;6.808;2023-04-01T10:15:27;99479.00;;;16.42;74.55
68871;BME280;55906;52.278;6.808;2023-04-01T10:18:26;99482.69;;;16.35;74.25
68871;BME280;55906;52.278;6.808;2023-04-01T10:21:19;99489.06;;;16.26;74.98
68871;BME280;55906;52.278;6.808;2023-04-01T10:24:10;99492.34;;;15.94;75.42
68871;BME280;55906;52.278;6.808;2023-04-01T10:27:09;99497.88;;;15.81;75.64
68871;BME280;55906;52.278;6.808;2023-04-01T10:30:06;99497.56;;;15.44;76.69
68871;BME280;55906;52.278;6.808;2023-04-01T10:33:19;99502.75;;;15.50;77.10
68871;BME280;55906;52.278;6.808;2023-04-01T10:45:19;99508.38;;;15.87;76.63
68871;BME280;55906;52.278;6.808;2023-04-01T10:48:12;99508.63;;;16.21;76.83
68871;BME280;55906;52.278;6.808;2023-04-01T10:50:54;99506.34;;;16.47;76.00
68871;BME280;55906;52.278;6.808;2023-04-01T10:53:43;99509.34;;;16.75;75.99
68871;BME280;55906;52.278;6.808;2023-04-01T10:56:32;99513.59;;;16.82;73.75
68871;BME280;55906;52.278;6.808;2023-04-01T11:02:47;99512.56;;;16.89;73.34
68871;BME280;55906;52.278;6.808;2023-04-01T11:06:04;99521.38;;;16.93;74.00
68871;BME280;55906;52.278;6.808;2023-04-01T11:09:26;99518.75;;;16.90;74.02
68871;BME280;55906;52.278;6.808;2023-04-01T11:15:26;99524.44;;;16.73;73.83
68871;BME280;55906;52.278;6.808;2023-04-01T11:18:23;99528.84;;;16.74;72.50
68871;BME280;55906;52.278;6.808;2023-04-01T11:21:13;99535.22;;;16.66;73.71
68871;BME280;55906;52.278;6.808;2023-04-01T11:24:04;99535.94;;;16.74;73.56
68871;BME280;55906;52.278;6.808;2023-04-01T11:26:44;99539.09;;;16.46;73.46
68871;BME280;55906;52.278;6.808;2023-04-01T11:29:44;99558.06;;;16.26;74.50
68871;BME280;55906;52.278;6.808;2023-04-01T11:32:21;99561.59;;;15.78;75.62
68871;BME280;55906;52.278;6.808;2023-04-01T11:35:00;99567.31;;;15.47;77.42
68871;BME280;55906;52.278;6.808;2023-04-01T11:37:38;99560.75;;;15.13;77.83
68871;BME280;55906;52.278;6.808;2023-04-01T11:40:17;99565.91;;;15.22;78.36
68871;BME280;55906;52.278;6.808;2023-04-01T11:42:52;99580.22;;;15.10;78.40
68871;BME280;55906;52.278;6.808;2023-04-01T11:45:28;99572.25;;;15.10;78.67
68871;BME280;55906;52.278;6.808;2023-04-01T11:48:23;99582.06;;;15.03;79.08
68871;BME280;55906;52.278;6.808;2023-04-01T11:51:01;99585.63;;;15.01;79.38
68871;BME280;55906;52.278;6.808;2023-04-01T11:53:41;99584.09;;;14.82;79.89
68871;BME280;55906;52.278;6.808;2023-04-01T11:56:23;99590.38;;;14.73;79.50
68871;BME280;55906;52.278;6.808;2023-04-01T11:59:29;99592.19;;;14.69;79.61
68871;BME280;55906;52.278;6.808;2023-04-01T12:02:08;99602.94;;;14.54;79.64
68871;BME280;55906;52.278;6.808;2023-04-01T12:04:54;99603.91;;;14.47;79.43
68871;BME280;55906;52.278;6.808;2023-04-01T12:10:39;99622.38;;;14.53;80.18
68871;BME280;55906;52.278;6.808;2023-04-01T12:13:16;99619.78;;;14.49;80.81
68871;BME280;55906;52.278;6.808;2023-04-01T12:15:57;99629.47;;;14.48;81.05
68871;BME280;55906;52.278;6.808;2023-04-01T12:18:32;99630.28;;;14.56;81.10
68871;BME280;55906;52.278;6.808;2023-04-01T12:21:13;99629.34;;;14.60;81.07
68871;BME280;55906;52.278;6.808;2023-04-01T12:24:06;99629.38;;;14.57;81.47
68871;BME280;55906;52.278;6.808;2023-04-01T12:26:46;99639.00;;;14.66;80.91
68871;BME280;55906;52.278;6.808;2023-04-01T12:32:15;99648.66;;;14.71;81.80
68871;BME280;55906;52.278;6.808;2023-04-01T12:34:53;99648.66;;;14.71;81.45
68871;BME280;55906;52.278;6.808;2023-04-01T12:37:33;99652.22;;;14.67;81.28
68871;BME280;55906;52.278;6.808;2023-04-01T12:43:28;99661.13;;;14.59;82.27
68871;BME280;55906;52.278;6.808;2023-04-01T12:46:07;99660.16;;;14.69;81.60
68871;BME280;55906;52.278;6.808;2023-04-01T12:52:10;99667.88;;;14.89;81.53
68871;BME280;55906;52.278;6.808;2023-04-01T12:57:54;99670.25;;;15.12;81.30
68871;BME280;55906;52.278;6.808;2023-04-01T13:00:34;99672.88;;;15.13;80.83
68871;BME280;55906;52.278;6.808;2023-04-01T13:03:21;99687.91;;;15.11;80.71
68871;BME280;55906;52.278;6.808;2023-04-01T13:06:20;99685.84;;;14.59;80.98
68871;BME280;55906;52.278;6.808;2023-04-01T13:08:53;99695.44;;;14.69;81.04
68871;BME280;55906;52.278;6.808;2023-04-01T13:11:26;99694.69;;;14.55;81.85
68871;BME280;55906;52.278;6.808;2023-04-01T13:14:22;99690.47;;;14.25;83.07
68871;BME280;55906;52.278;6.808;2023-04-01T13:16:57;99702.75;;;14.43;82.62
68871;BME280;55906;52.278;6.808;2023-04-01T13:19:34;99713.31;;;14.41;82.69
68871;BME280;55906;52.278;6.808;2023-04-01T13:22:09;99719.56;;;14.27;83.38
68871;BME280;55906;52.278;6.808;2023-04-01T13:24:49;99714.31;;;14.21;83.83
68871;BME280;55906;52.278;6.808;2023-04-01T13:27:21;99720.41;;;14.35;82.79
68871;BME280;55906;52.278;6.808;2023-04-01T13:30:02;99723.06;;;14.33;82.85
68871;BME280;55906;52.278;6.808;2023-04-01T13:32:41;99725.69;;;14.39;82.85
68871;BME280;55906;52.278;6.808;2023-04-01T13:35:26;99734.50;;;14.45;82.57
68871;BME280;55906;52.278;6.808;2023-04-01T13:40:51;99740.66;;;14.47;82.32
68871;BME280;55906;52.278;6.808;2023-04-01T13:43:29;99748.63;;;14.42;82.41
68871;BME280;55906;52.278;6.808;2023-04-01T13:49:32;99753.88;;;14.47;81.86
68871;BME280;55906;52.278;6.808;2023-04-01T13:52:16;99759.22;;;14.34;81.38
68871;BME280;55906;52.278;6.808;2023-04-01T13:55:10;99758.38;;;14.28;81.09
68871;BME280;55906;52.278;6.808;2023-04-01T13:57:56;99765.41;;;14.35;81.52
68871;BME280;55906;52.278;6.808;2023-04-01T14:00:35;99768.06;;;14.32;80.93
68871;BME280;55906;52.278;6.808;2023-04-01T14:03:27;99775.94;;;14.41;81.53
68871;BME280;55906;52.278;6.808;2023-04-01T14:06:04;99776.91;;;14.23;81.79
68871;BME280;55906;52.278;6.808;2023-04-01T14:08:55;99780.38;;;14.37;81.91
68871;BME280;55906;52.278;6.808;2023-04-01T14:11:33;99782.13;;;14.38;81.65
68871;BME280;55906;52.278;6.808;2023-04-01T14:14:12;99794.53;;;14.33;81.56
68871;BME280;55906;52.278;6.808;2023-04-01T14:17:10;99799.75;;;14.46;81.42
68871;BME280;55906;52.278;6.808;2023-04-01T14:19:51;99800.72;;;14.31;81.94
68871;BME280;55906;52.278;6.808;2023-04-01T14:22:33;99804.28;;;14.19;81.88
68871;BME280;55906;52.278;6.808;2023-04-01T14:25:29;99806.06;;;14.16;82.03
68871;BME280;55906;52.278;6.808;2023-04-01T14:28:09;99812.38;;;13.92;82.60
68871;BME280;55906;52.278;6.808;2023-04-01T14:30:52;99817.72;;;13.78;83.07
68871;BME280;55906;52.278;6.808;2023-04-01T14:33:37;99818.63;;;13.69;83.70
68871;BME280;55906;52.278;6.808;2023-04-01T14:36:25;99829.16;;;13.83;83.42
68871;BME280;55906;52.278;6.808;2023-04-01T14:39:11;99834.47;;;13.77;83.46
68871;BME280;55906;52.278;6.808;2023-04-01T14:41:47;99838.91;;;13.64;84.07
68871;BME280;55906;52.278;6.808;2023-04-01T14:44:23;99839.81;;;13.56;84.67
68871;BME280;55906;52.278;6.808;2023-04-01T14:47:11;99846.00;;;13.55;84.75
68871;BME280;55906;52.278;6.808;2023-04-01T14:49:46;99843.41;;;13.27;85.85